UAE806 OEJN-OMDB
Flight info
| Callsign | UAE806 |
|---|---|
| Flight time | 2h 29m |
| Altitude | 39000 |
| Route | EGREP2W EGREP T532 KODIS Y214 RAPMA DCT KUVSO DCT KATIT DCT PEKEM M628 RIGIL G783 ELUDA/N0468F350 G783 ASPED Q308 KIPOK Q568 IMPED IMPED3C |
| Aircraft | A388/J-V/N |
Departure
| Time | 2026-04-21 15:29 |
|---|---|
| Airport | King Abdulaziz International Airport (OEJN) |
Arrival
| Time | 2026-04-21 17:58 |
|---|---|
| Airport | Dubai International Airport (OMDB) |
| Time | Latitude | Longitude | Altitude | Speed | Heading |
|---|---|---|---|---|---|
| 2026-04-21 14:49 | 21.67256 | 39.17099 | 37 ft | 0 kts | 132° |
| 2026-04-21 15:16 | 21.67266 | 39.17087 | 36 ft | 4 kts | 127° |
| 2026-04-21 15:17 | 21.67280 | 39.17063 | 36 ft | 4 kts | 112° |
| 2026-04-21 15:17 | 21.67287 | 39.17035 | 34 ft | 4 kts | 91° |
| 2026-04-21 15:17 | 21.67282 | 39.17009 | 34 ft | 4 kts | 52° |
| 2026-04-21 15:17 | 21.67279 | 39.17004 | 34 ft | 1 kts | 46° |
| 2026-04-21 15:20 | 21.67292 | 39.17018 | 34 ft | 2 kts | 27° |
| 2026-04-21 15:20 | 21.67305 | 39.17021 | 34 ft | 2 kts | 350° |
| 2026-04-21 15:21 | 21.67333 | 39.17006 | 37 ft | 8 kts | 328° |
| 2026-04-21 15:21 | 21.67382 | 39.16975 | 37 ft | 8 kts | 335° |
| 2026-04-21 15:21 | 21.67432 | 39.16952 | 37 ft | 8 kts | 336° |
| 2026-04-21 15:21 | 21.67490 | 39.16926 | 37 ft | 10 kts | 337° |
| 2026-04-21 15:22 | 21.67554 | 39.16897 | 36 ft | 11 kts | 337° |
| 2026-04-21 15:22 | 21.67625 | 39.16865 | 36 ft | 11 kts | 337° |
| 2026-04-21 15:22 | 21.67699 | 39.16833 | 36 ft | 12 kts | 340° |
| 2026-04-21 15:22 | 21.67778 | 39.16802 | 35 ft | 12 kts | 335° |
| 2026-04-21 15:23 | 21.67813 | 39.16738 | 35 ft | 10 kts | 265° |
| 2026-04-21 15:23 | 21.67790 | 39.16658 | 35 ft | 13 kts | 249° |
| 2026-04-21 15:23 | 21.67758 | 39.16564 | 35 ft | 14 kts | 250° |
| 2026-04-21 15:23 | 21.67722 | 39.16458 | 35 ft | 15 kts | 249° |
| 2026-04-21 15:24 | 21.67682 | 39.16351 | 35 ft | 15 kts | 251° |
| 2026-04-21 15:24 | 21.67651 | 39.16242 | 35 ft | 15 kts | 251° |
| 2026-04-21 15:24 | 21.67613 | 39.16143 | 35 ft | 13 kts | 223° |
| 2026-04-21 15:24 | 21.67525 | 39.16132 | 35 ft | 16 kts | 162° |
| 2026-04-21 15:25 | 21.67404 | 39.16177 | 35 ft | 21 kts | 159° |
| 2026-04-21 15:25 | 21.67250 | 39.16241 | 37 ft | 26 kts | 159° |
| 2026-04-21 15:25 | 21.67068 | 39.16314 | 38 ft | 27 kts | 159° |
| 2026-04-21 15:25 | 21.66922 | 39.16374 | 39 ft | 20 kts | 160° |
| 2026-04-21 15:26 | 21.66771 | 39.16432 | 39 ft | 26 kts | 160° |
| 2026-04-21 15:26 | 21.66576 | 39.16505 | 40 ft | 29 kts | 160° |
| 2026-04-21 15:26 | 21.66481 | 39.16544 | 40 ft | 15 kts | 156° |
| 2026-04-21 15:26 | 21.66364 | 39.16595 | 40 ft | 21 kts | 160° |
| 2026-04-21 15:27 | 21.66252 | 39.16639 | 40 ft | 13 kts | 158° |
| 2026-04-21 15:27 | 21.66180 | 39.16614 | 40 ft | 13 kts | 239° |
| 2026-04-21 15:27 | 21.66152 | 39.16520 | 39 ft | 13 kts | 269° |
| 2026-04-21 15:27 | 21.66197 | 39.16457 | 38 ft | 11 kts | 336° |
| 2026-04-21 15:28 | 21.66236 | 39.16440 | 38 ft | 0 kts | 339° |
| 2026-04-21 15:28 | 21.66448 | 39.16355 | 40 ft | 74 kts | 339° |
| 2026-04-21 15:28 | 21.67148 | 39.16083 | 37 ft | 134 kts | 339° |
| 2026-04-21 15:28 | 21.68081 | 39.15707 | 397 ft | 146 kts | 340° |
| 2026-04-21 15:29 | 21.69016 | 39.15317 | 1002 ft | 145 kts | 340° |
| 2026-04-21 15:29 | 21.69964 | 39.14936 | 1621 ft | 146 kts | 341° |
| 2026-04-21 15:29 | 21.70943 | 39.14554 | 1996 ft | 157 kts | 339° |
| 2026-04-21 15:29 | 21.72027 | 39.14119 | 2185 ft | 177 kts | 338° |
| 2026-04-21 15:30 | 21.73270 | 39.13620 | 2542 ft | 199 kts | 337° |
| 2026-04-21 15:30 | 21.74643 | 39.13076 | 2989 ft | 226 kts | 337° |
| 2026-04-21 15:30 | 21.76218 | 39.12454 | 3266 ft | 256 kts | 338° |
| 2026-04-21 15:30 | 21.77956 | 39.11770 | 3693 ft | 276 kts | 339° |
| 2026-04-21 15:31 | 21.79800 | 39.11050 | 4350 ft | 287 kts | 338° |
| 2026-04-21 15:31 | 21.81705 | 39.10304 | 5004 ft | 297 kts | 337° |
| 2026-04-21 15:31 | 21.83638 | 39.09547 | 5911 ft | 294 kts | 338° |
| 2026-04-21 15:31 | 21.85583 | 39.08788 | 6674 ft | 300 kts | 336° |
| 2026-04-21 15:32 | 21.86873 | 39.08283 | 7293 ft | 294 kts | 337° |
| 2026-04-21 15:32 | 21.89429 | 39.07285 | 8500 ft | 293 kts | 335° |
| 2026-04-21 15:32 | 21.90666 | 39.06724 | 9057 ft | 291 kts | 332° |
| 2026-04-21 15:32 | 21.93133 | 39.05533 | 10190 ft | 291 kts | 331° |
| 2026-04-21 15:33 | 21.94375 | 39.04937 | 10470 ft | 302 kts | 331° |
| 2026-04-21 15:33 | 21.96360 | 39.03981 | 10670 ft | 323 kts | 331° |
| 2026-04-21 15:33 | 21.98478 | 39.02964 | 10859 ft | 342 kts | 331° |
| 2026-04-21 15:33 | 22.00679 | 39.01915 | 11436 ft | 348 kts | 332° |
| 2026-04-21 15:34 | 22.03040 | 39.01196 | 12097 ft | 361 kts | 349° |
| 2026-04-21 15:34 | 22.05586 | 39.01388 | 12770 ft | 376 kts | 9° |
| 2026-04-21 15:34 | 22.08031 | 39.02510 | 13407 ft | 391 kts | 29° |
| 2026-04-21 15:34 | 22.10097 | 39.04471 | 13999 ft | 402 kts | 49° |
| 2026-04-21 15:35 | 22.11529 | 39.07070 | 14675 ft | 406 kts | 68° |
| 2026-04-21 15:35 | 22.12428 | 39.09964 | 15307 ft | 408 kts | 72° |
| 2026-04-21 15:35 | 22.13328 | 39.12876 | 15902 ft | 411 kts | 69° |
| 2026-04-21 15:35 | 22.14402 | 39.15746 | 16509 ft | 413 kts | 65° |
| 2026-04-21 15:36 | 22.15617 | 39.18561 | 17158 ft | 415 kts | 63° |
| 2026-04-21 15:36 | 22.16911 | 39.21351 | 17775 ft | 417 kts | 62° |
| 2026-04-21 15:36 | 22.18240 | 39.24137 | 18334 ft | 419 kts | 61° |
| 2026-04-21 15:36 | 22.19589 | 39.26942 | 18815 ft | 422 kts | 61° |
| 2026-04-21 15:37 | 22.20945 | 39.29766 | 19277 ft | 426 kts | 61° |
| 2026-04-21 15:37 | 22.22310 | 39.32612 | 19766 ft | 429 kts | 61° |
| 2026-04-21 15:37 | 22.23682 | 39.35481 | 20213 ft | 432 kts | 61° |
| 2026-04-21 15:37 | 22.25063 | 39.38372 | 20695 ft | 434 kts | 61° |
| 2026-04-21 15:38 | 22.26450 | 39.41278 | 21159 ft | 437 kts | 61° |
| 2026-04-21 15:38 | 22.27848 | 39.44209 | 21622 ft | 441 kts | 61° |
| 2026-04-21 15:38 | 22.29256 | 39.47162 | 22071 ft | 444 kts | 60° |
| 2026-04-21 15:38 | 22.30652 | 39.50093 | 22548 ft | 446 kts | 60° |
| 2026-04-21 15:39 | 22.32076 | 39.53085 | 22995 ft | 449 kts | 60° |
| 2026-04-21 15:39 | 22.33511 | 39.56100 | 23423 ft | 453 kts | 60° |
| 2026-04-21 15:39 | 22.34955 | 39.59138 | 23789 ft | 457 kts | 60° |
| 2026-04-21 15:39 | 22.36411 | 39.62202 | 24139 ft | 460 kts | 60° |
| 2026-04-21 15:40 | 22.37875 | 39.65284 | 24517 ft | 463 kts | 60° |
| 2026-04-21 15:40 | 22.39351 | 39.68394 | 24883 ft | 467 kts | 60° |
| 2026-04-21 15:40 | 22.40838 | 39.71528 | 25230 ft | 470 kts | 60° |
| 2026-04-21 15:40 | 22.42336 | 39.74686 | 25602 ft | 474 kts | 60° |
| 2026-04-21 15:41 | 22.43846 | 39.77872 | 25978 ft | 478 kts | 60° |
| 2026-04-21 15:41 | 22.45428 | 39.81034 | 26402 ft | 479 kts | 54° |
| 2026-04-21 15:41 | 22.47374 | 39.83936 | 26908 ft | 475 kts | 46° |
| 2026-04-21 15:41 | 22.49650 | 39.86531 | 27227 ft | 477 kts | 38° |
| 2026-04-21 15:42 | 22.52161 | 39.88902 | 27398 ft | 483 kts | 36° |
| 2026-04-21 15:42 | 22.54693 | 39.91300 | 27977 ft | 483 kts | 36° |
| 2026-04-21 15:42 | 22.57222 | 39.93714 | 28429 ft | 488 kts | 36° |
| 2026-04-21 15:42 | 22.59778 | 39.96157 | 28864 ft | 492 kts | 36° |
| 2026-04-21 15:43 | 22.62355 | 39.98623 | 29337 ft | 496 kts | 36° |
| 2026-04-21 15:43 | 22.64952 | 40.01109 | 29811 ft | 501 kts | 36° |
| 2026-04-21 15:43 | 22.67539 | 40.03585 | 30236 ft | 505 kts | 36° |
| 2026-04-21 15:43 | 22.70211 | 40.06144 | 30660 ft | 508 kts | 36° |
| 2026-04-21 15:44 | 22.72875 | 40.08694 | 31011 ft | 514 kts | 36° |
| 2026-04-21 15:44 | 22.75564 | 40.11270 | 31429 ft | 518 kts | 36° |
| 2026-04-21 15:44 | 22.78270 | 40.13865 | 31843 ft | 521 kts | 35° |
| 2026-04-21 15:44 | 22.80992 | 40.16475 | 32215 ft | 525 kts | 35° |
| 2026-04-21 15:45 | 22.83736 | 40.19110 | 32598 ft | 529 kts | 35° |
| 2026-04-21 15:45 | 22.86464 | 40.21729 | 32979 ft | 532 kts | 34° |
| 2026-04-21 15:45 | 22.89284 | 40.24438 | 33361 ft | 536 kts | 34° |
| 2026-04-21 15:45 | 22.92052 | 40.27099 | 33695 ft | 542 kts | 34° |
| 2026-04-21 15:46 | 22.94885 | 40.29824 | 34052 ft | 546 kts | 34° |
| 2026-04-21 15:46 | 22.97733 | 40.32566 | 34381 ft | 549 kts | 34° |
| 2026-04-21 15:46 | 23.00591 | 40.35320 | 34810 ft | 550 kts | 34° |
| 2026-04-21 15:46 | 23.03448 | 40.38077 | 35289 ft | 550 kts | 34° |
| 2026-04-21 15:47 | 23.06305 | 40.40835 | 35755 ft | 549 kts | 33° |
| 2026-04-21 15:47 | 23.09162 | 40.43593 | 36278 ft | 549 kts | 33° |
| 2026-04-21 15:47 | 23.12015 | 40.46348 | 36726 ft | 549 kts | 33° |
| 2026-04-21 15:47 | 23.14867 | 40.49104 | 37194 ft | 548 kts | 33° |
| 2026-04-21 15:48 | 23.17711 | 40.51854 | 37678 ft | 547 kts | 33° |
| 2026-04-21 15:48 | 23.20553 | 40.54601 | 38114 ft | 546 kts | 33° |
| 2026-04-21 15:48 | 23.23365 | 40.57381 | 38556 ft | 550 kts | 37° |
| 2026-04-21 15:48 | 23.25919 | 40.60515 | 38912 ft | 559 kts | 45° |
| 2026-04-21 15:49 | 23.28151 | 40.64048 | 38952 ft | 573 kts | 54° |
| 2026-04-21 15:49 | 23.29960 | 40.67928 | 38932 ft | 578 kts | 63° |
| 2026-04-21 15:49 | 23.32809 | 40.76147 | 38921 ft | 581 kts | 65° |
| 2026-04-21 15:50 | 23.35677 | 40.84369 | 38920 ft | 581 kts | 65° |
| 2026-04-21 15:50 | 23.38535 | 40.92596 | 38913 ft | 581 kts | 65° |
| 2026-04-21 15:51 | 23.41386 | 41.00834 | 38908 ft | 582 kts | 65° |
| 2026-04-21 15:51 | 23.44232 | 41.09079 | 38900 ft | 582 kts | 65° |
| 2026-04-21 15:52 | 23.47077 | 41.17336 | 38902 ft | 582 kts | 65° |
| 2026-04-21 15:52 | 23.49917 | 41.25594 | 38900 ft | 582 kts | 65° |
| 2026-04-21 15:53 | 23.52751 | 41.33853 | 38892 ft | 582 kts | 65° |
| 2026-04-21 15:53 | 23.55584 | 41.42121 | 38884 ft | 583 kts | 65° |
| 2026-04-21 15:54 | 23.58413 | 41.50398 | 38884 ft | 582 kts | 65° |
| 2026-04-21 15:54 | 23.61217 | 41.58616 | 38869 ft | 582 kts | 65° |
| 2026-04-21 15:55 | 23.64034 | 41.66889 | 38868 ft | 582 kts | 65° |
| 2026-04-21 15:55 | 23.66849 | 41.75170 | 38847 ft | 583 kts | 65° |
| 2026-04-21 15:56 | 23.69569 | 41.83510 | 38856 ft | 584 kts | 67° |
| 2026-04-21 15:56 | 23.72204 | 41.91891 | 38850 ft | 584 kts | 67° |
| 2026-04-21 15:57 | 23.74857 | 42.00271 | 38842 ft | 584 kts | 66° |
| 2026-04-21 15:57 | 23.77681 | 42.08571 | 38848 ft | 583 kts | 65° |
| 2026-04-21 15:58 | 23.80549 | 42.16857 | 38839 ft | 583 kts | 65° |
| 2026-04-21 15:58 | 23.83387 | 42.25157 | 38846 ft | 583 kts | 65° |
| 2026-04-21 15:59 | 23.86212 | 42.33460 | 38842 ft | 583 kts | 65° |
| 2026-04-21 15:59 | 23.89030 | 42.41766 | 38857 ft | 583 kts | 65° |
| 2026-04-21 16:00 | 23.91844 | 42.50073 | 38840 ft | 583 kts | 65° |
| 2026-04-21 16:00 | 23.94651 | 42.58378 | 38833 ft | 582 kts | 65° |
| 2026-04-21 16:01 | 23.97451 | 42.66678 | 38823 ft | 582 kts | 65° |
| 2026-04-21 16:01 | 24.00229 | 42.74929 | 38826 ft | 582 kts | 65° |
| 2026-04-21 16:02 | 24.02923 | 42.83293 | 38816 ft | 586 kts | 73° |
| 2026-04-21 16:02 | 24.03637 | 42.87689 | 38813 ft | 590 kts | 84° |
| 2026-04-21 16:02 | 24.03684 | 42.92172 | 38813 ft | 590 kts | 95° |
| 2026-04-21 16:03 | 24.03059 | 42.96596 | 38813 ft | 588 kts | 107° |
| 2026-04-21 16:03 | 24.01907 | 43.00871 | 38810 ft | 585 kts | 111° |
| 2026-04-21 16:03 | 23.99342 | 43.09321 | 38813 ft | 586 kts | 111° |
| 2026-04-21 16:04 | 23.96923 | 43.17843 | 38814 ft | 588 kts | 110° |
| 2026-04-21 16:04 | 23.94578 | 43.26405 | 38824 ft | 588 kts | 109° |
| 2026-04-21 16:05 | 23.92239 | 43.34974 | 38829 ft | 589 kts | 109° |
| 2026-04-21 16:05 | 23.89892 | 43.43546 | 38827 ft | 589 kts | 109° |
| 2026-04-21 16:06 | 23.87537 | 43.52118 | 38831 ft | 589 kts | 109° |
| 2026-04-21 16:06 | 23.85178 | 43.60686 | 38828 ft | 589 kts | 109° |
| 2026-04-21 16:07 | 23.82814 | 43.69250 | 38823 ft | 589 kts | 109° |
| 2026-04-21 16:07 | 23.80445 | 43.77815 | 38825 ft | 589 kts | 109° |
| 2026-04-21 16:08 | 23.77309 | 43.90767 | 38835 ft | 590 kts | 98° |
| 2026-04-21 16:09 | 23.76589 | 43.99680 | 38831 ft | 589 kts | 94° |
| 2026-04-21 16:09 | 23.75934 | 44.08535 | 38830 ft | 589 kts | 95° |
| 2026-04-21 16:10 | 23.75263 | 44.17448 | 38845 ft | 590 kts | 95° |
| 2026-04-21 16:10 | 23.74588 | 44.26374 | 38839 ft | 590 kts | 95° |
| 2026-04-21 16:11 | 23.73910 | 44.35295 | 38841 ft | 590 kts | 95° |
| 2026-04-21 16:11 | 23.73226 | 44.44220 | 38841 ft | 591 kts | 95° |
| 2026-04-21 16:12 | 23.72649 | 44.51704 | 38852 ft | 591 kts | 95° |
| 2026-04-21 16:12 | 23.71841 | 44.62090 | 38852 ft | 591 kts | 95° |
| 2026-04-21 16:13 | 23.71141 | 44.71031 | 38846 ft | 591 kts | 95° |
| 2026-04-21 16:13 | 23.70435 | 44.79970 | 38855 ft | 592 kts | 95° |
| 2026-04-21 16:14 | 23.69724 | 44.88916 | 38855 ft | 592 kts | 95° |
| 2026-04-21 16:14 | 23.69007 | 44.97857 | 38860 ft | 592 kts | 95° |
| 2026-04-21 16:15 | 23.68284 | 45.06793 | 38866 ft | 591 kts | 95° |
| 2026-04-21 16:15 | 23.67558 | 45.15717 | 38854 ft | 590 kts | 95° |
| 2026-04-21 16:16 | 23.66827 | 45.24629 | 38835 ft | 590 kts | 95° |
| 2026-04-21 16:16 | 23.66090 | 45.33550 | 38829 ft | 590 kts | 95° |
| 2026-04-21 16:17 | 23.65348 | 45.42464 | 38812 ft | 591 kts | 95° |
| 2026-04-21 16:17 | 23.64607 | 45.51332 | 38810 ft | 591 kts | 95° |
| 2026-04-21 16:18 | 23.63855 | 45.60254 | 38819 ft | 591 kts | 95° |
| 2026-04-21 16:18 | 23.63097 | 45.69175 | 38807 ft | 591 kts | 95° |
| 2026-04-21 16:19 | 23.62334 | 45.78097 | 38796 ft | 591 kts | 95° |
| 2026-04-21 16:19 | 23.61567 | 45.87009 | 38800 ft | 590 kts | 95° |
| 2026-04-21 16:20 | 23.60795 | 45.95912 | 38799 ft | 590 kts | 95° |
| 2026-04-21 16:20 | 23.60017 | 46.04825 | 38794 ft | 590 kts | 95° |
| 2026-04-21 16:21 | 23.59233 | 46.13734 | 38804 ft | 591 kts | 95° |
| 2026-04-21 16:21 | 23.58445 | 46.22651 | 38796 ft | 591 kts | 95° |
| 2026-04-21 16:22 | 23.57785 | 46.30064 | 38807 ft | 591 kts | 95° |
| 2026-04-21 16:22 | 23.56852 | 46.40498 | 38809 ft | 592 kts | 95° |
| 2026-04-21 16:23 | 23.56183 | 46.47922 | 38808 ft | 592 kts | 95° |
| 2026-04-21 16:23 | 23.55373 | 46.56860 | 38812 ft | 592 kts | 95° |
| 2026-04-21 16:24 | 23.54555 | 46.65794 | 38813 ft | 592 kts | 95° |
| 2026-04-21 16:24 | 23.53738 | 46.74727 | 38815 ft | 592 kts | 95° |
| 2026-04-21 16:25 | 23.52910 | 46.83661 | 38799 ft | 592 kts | 95° |
| 2026-04-21 16:25 | 23.52079 | 46.92587 | 38801 ft | 592 kts | 95° |
| 2026-04-21 16:26 | 23.51242 | 47.01516 | 38806 ft | 592 kts | 95° |
| 2026-04-21 16:26 | 23.50402 | 47.10433 | 38800 ft | 592 kts | 95° |
| 2026-04-21 16:27 | 23.49557 | 47.19342 | 38807 ft | 591 kts | 95° |
| 2026-04-21 16:27 | 23.48708 | 47.28239 | 38797 ft | 591 kts | 95° |
| 2026-04-21 16:28 | 23.47854 | 47.37138 | 38803 ft | 591 kts | 95° |
| 2026-04-21 16:28 | 23.46996 | 47.46032 | 38802 ft | 590 kts | 95° |
| 2026-04-21 16:29 | 23.46135 | 47.54911 | 38809 ft | 590 kts | 95° |
| 2026-04-21 16:29 | 23.45267 | 47.63790 | 38808 ft | 589 kts | 95° |
| 2026-04-21 16:30 | 23.44396 | 47.72658 | 38819 ft | 588 kts | 95° |
| 2026-04-21 16:30 | 23.43522 | 47.81513 | 38809 ft | 588 kts | 95° |
| 2026-04-21 16:31 | 23.42650 | 47.90297 | 38807 ft | 588 kts | 95° |
| 2026-04-21 16:31 | 23.41766 | 47.99141 | 38808 ft | 587 kts | 95° |
| 2026-04-21 16:32 | 23.40877 | 48.07990 | 38805 ft | 589 kts | 95° |
| 2026-04-21 16:32 | 23.39981 | 48.16860 | 38805 ft | 590 kts | 95° |
| 2026-04-21 16:33 | 23.39078 | 48.25737 | 38800 ft | 590 kts | 95° |
| 2026-04-21 16:33 | 23.38197 | 48.34617 | 38818 ft | 590 kts | 91° |
| 2026-04-21 16:34 | 23.37844 | 48.43523 | 38824 ft | 589 kts | 90° |
| 2026-04-21 16:34 | 23.37488 | 48.52446 | 38815 ft | 591 kts | 90° |
| 2026-04-21 16:35 | 23.37122 | 48.61380 | 38817 ft | 591 kts | 90° |
| 2026-04-21 16:35 | 23.36750 | 48.70323 | 38824 ft | 592 kts | 90° |
| 2026-04-21 16:36 | 23.36373 | 48.79267 | 38823 ft | 592 kts | 90° |
| 2026-04-21 16:36 | 23.35991 | 48.88213 | 38797 ft | 592 kts | 90° |
| 2026-04-21 16:37 | 23.35605 | 48.97140 | 38823 ft | 590 kts | 90° |
| 2026-04-21 16:37 | 23.35182 | 49.06051 | 38817 ft | 590 kts | 94° |
| 2026-04-21 16:38 | 23.33984 | 49.14902 | 38812 ft | 591 kts | 98° |
| 2026-04-21 16:38 | 23.32716 | 49.23733 | 38811 ft | 591 kts | 97° |
| 2026-04-21 16:39 | 23.31451 | 49.32560 | 38821 ft | 591 kts | 97° |
| 2026-04-21 16:39 | 23.30177 | 49.41388 | 38805 ft | 591 kts | 97° |
| 2026-04-21 16:40 | 23.28896 | 49.50204 | 38810 ft | 589 kts | 97° |
| 2026-04-21 16:40 | 23.27613 | 49.59002 | 38816 ft | 589 kts | 97° |
| 2026-04-21 16:41 | 23.26326 | 49.67793 | 38817 ft | 588 kts | 97° |
| 2026-04-21 16:41 | 23.25035 | 49.76578 | 38814 ft | 588 kts | 97° |
| 2026-04-21 16:42 | 23.23748 | 49.85297 | 38807 ft | 588 kts | 97° |
| 2026-04-21 16:42 | 23.22448 | 49.94074 | 38807 ft | 588 kts | 97° |
| 2026-04-21 16:43 | 23.21144 | 50.02836 | 38827 ft | 586 kts | 97° |
| 2026-04-21 16:43 | 23.19838 | 50.11580 | 38819 ft | 586 kts | 97° |
| 2026-04-21 16:44 | 23.18529 | 50.20315 | 38821 ft | 585 kts | 97° |
| 2026-04-21 16:44 | 23.17216 | 50.29039 | 38823 ft | 585 kts | 97° |
| 2026-04-21 16:45 | 23.15898 | 50.37758 | 38809 ft | 585 kts | 97° |
| 2026-04-21 16:45 | 23.14577 | 50.46471 | 38816 ft | 584 kts | 97° |
| 2026-04-21 16:46 | 23.13251 | 50.55184 | 38804 ft | 584 kts | 97° |
| 2026-04-21 16:46 | 23.11922 | 50.63874 | 38827 ft | 583 kts | 97° |
| 2026-04-21 16:47 | 23.10590 | 50.72559 | 38814 ft | 582 kts | 97° |
| 2026-04-21 16:47 | 23.09255 | 50.81232 | 38821 ft | 582 kts | 97° |
| 2026-04-21 16:48 | 23.07915 | 50.89899 | 38829 ft | 582 kts | 97° |
| 2026-04-21 16:48 | 23.06579 | 50.98511 | 38818 ft | 582 kts | 97° |
| 2026-04-21 16:49 | 23.05231 | 51.07173 | 38810 ft | 582 kts | 97° |
| 2026-04-21 16:49 | 23.03879 | 51.15822 | 38825 ft | 581 kts | 97° |
| 2026-04-21 16:50 | 23.02524 | 51.24462 | 38821 ft | 580 kts | 97° |
| 2026-04-21 16:50 | 23.01165 | 51.33092 | 38816 ft | 580 kts | 97° |
| 2026-04-21 16:51 | 22.99802 | 51.41724 | 38808 ft | 580 kts | 97° |
| 2026-04-21 16:51 | 22.98434 | 51.50351 | 38809 ft | 580 kts | 97° |
| 2026-04-21 16:52 | 22.97061 | 51.58974 | 38810 ft | 580 kts | 97° |
| 2026-04-21 16:52 | 22.95684 | 51.67593 | 38809 ft | 580 kts | 97° |
| 2026-04-21 16:53 | 22.94304 | 51.76205 | 38812 ft | 579 kts | 97° |
| 2026-04-21 16:53 | 22.92920 | 51.84812 | 38820 ft | 579 kts | 98° |
| 2026-04-21 16:54 | 22.91532 | 51.93410 | 38819 ft | 578 kts | 98° |
| 2026-04-21 16:54 | 22.90140 | 52.02004 | 38813 ft | 578 kts | 98° |
| 2026-04-21 16:55 | 22.88745 | 52.10582 | 38833 ft | 577 kts | 98° |
| 2026-04-21 16:55 | 22.87347 | 52.19150 | 38828 ft | 576 kts | 98° |
| 2026-04-21 16:56 | 22.85948 | 52.27699 | 38804 ft | 576 kts | 98° |
| 2026-04-21 16:56 | 22.84545 | 52.36242 | 38817 ft | 575 kts | 98° |
| 2026-04-21 16:57 | 22.83142 | 52.44767 | 38810 ft | 574 kts | 98° |
| 2026-04-21 16:57 | 22.82309 | 52.53328 | 38804 ft | 569 kts | 88° |
| 2026-04-21 16:58 | 22.82118 | 52.61893 | 38807 ft | 568 kts | 88° |
| 2026-04-21 16:58 | 22.81899 | 52.70456 | 38803 ft | 568 kts | 88° |
| 2026-04-21 16:59 | 22.81673 | 52.79010 | 38812 ft | 567 kts | 88° |
| 2026-04-21 16:59 | 22.81443 | 52.87497 | 38802 ft | 567 kts | 88° |
| 2026-04-21 17:00 | 22.81209 | 52.96037 | 38804 ft | 566 kts | 88° |
| 2026-04-21 17:00 | 22.81009 | 53.03183 | 38801 ft | 566 kts | 88° |
| 2026-04-21 17:01 | 22.80726 | 53.13080 | 38800 ft | 565 kts | 88° |
| 2026-04-21 17:01 | 22.80479 | 53.21591 | 38791 ft | 565 kts | 88° |
| 2026-04-21 17:02 | 22.80227 | 53.30100 | 38801 ft | 565 kts | 88° |
| 2026-04-21 17:02 | 22.79970 | 53.38601 | 38798 ft | 564 kts | 88° |
| 2026-04-21 17:03 | 22.79709 | 53.47101 | 38798 ft | 564 kts | 88° |
| 2026-04-21 17:03 | 22.79444 | 53.55589 | 38792 ft | 564 kts | 88° |
| 2026-04-21 17:04 | 22.79174 | 53.64075 | 38788 ft | 563 kts | 88° |
| 2026-04-21 17:04 | 22.78900 | 53.72560 | 38788 ft | 563 kts | 88° |
| 2026-04-21 17:05 | 22.78623 | 53.81040 | 38801 ft | 563 kts | 88° |
| 2026-04-21 17:05 | 22.78339 | 53.89520 | 38777 ft | 563 kts | 88° |
| 2026-04-21 17:06 | 22.78219 | 53.97976 | 38784 ft | 558 kts | 82° |
| 2026-04-21 17:06 | 22.79362 | 54.06215 | 38789 ft | 549 kts | 71° |
| 2026-04-21 17:07 | 22.80753 | 54.12933 | 38791 ft | 550 kts | 72° |
| 2026-04-21 17:07 | 22.82667 | 54.22392 | 38793 ft | 550 kts | 72° |
| 2026-04-21 17:08 | 22.84303 | 54.30484 | 38802 ft | 549 kts | 72° |
| 2026-04-21 17:08 | 22.85934 | 54.38561 | 38799 ft | 548 kts | 72° |
| 2026-04-21 17:09 | 22.88371 | 54.50670 | 38803 ft | 548 kts | 72° |
| 2026-04-21 17:09 | 22.89988 | 54.58733 | 38809 ft | 547 kts | 72° |
| 2026-04-21 17:10 | 22.91599 | 54.66788 | 38803 ft | 546 kts | 72° |
| 2026-04-21 17:10 | 22.92935 | 54.73483 | 38800 ft | 546 kts | 72° |
| 2026-04-21 17:11 | 22.94795 | 54.82832 | 38802 ft | 545 kts | 72° |
| 2026-04-21 17:11 | 22.96390 | 54.90868 | 38804 ft | 545 kts | 72° |
| 2026-04-21 17:12 | 22.97722 | 54.97600 | 38795 ft | 544 kts | 72° |
| 2026-04-21 17:12 | 22.99296 | 55.05578 | 38799 ft | 544 kts | 72° |
| 2026-04-21 17:13 | 23.01116 | 55.13503 | 38801 ft | 535 kts | 62° |
| 2026-04-21 17:13 | 23.02712 | 55.17096 | 38798 ft | 524 kts | 51° |
| 2026-04-21 17:13 | 23.04799 | 55.20286 | 38796 ft | 513 kts | 41° |
| 2026-04-21 17:14 | 23.07277 | 55.23002 | 38801 ft | 501 kts | 32° |
| 2026-04-21 17:14 | 23.10055 | 55.25217 | 38799 ft | 490 kts | 23° |
| 2026-04-21 17:14 | 23.16169 | 55.28075 | 38784 ft | 470 kts | 6° |
| 2026-04-21 17:15 | 23.22493 | 55.29907 | 38784 ft | 471 kts | 7° |
| 2026-04-21 17:15 | 23.28819 | 55.31776 | 38790 ft | 471 kts | 7° |
| 2026-04-21 17:16 | 23.35145 | 55.33646 | 38787 ft | 471 kts | 7° |
| 2026-04-21 17:16 | 23.41474 | 55.35516 | 38798 ft | 471 kts | 7° |
| 2026-04-21 17:17 | 23.47813 | 55.37389 | 38791 ft | 473 kts | 7° |
| 2026-04-21 17:17 | 23.54165 | 55.39268 | 38796 ft | 474 kts | 7° |
| 2026-04-21 17:18 | 23.60531 | 55.41151 | 38806 ft | 474 kts | 7° |
| 2026-04-21 17:18 | 23.66908 | 55.43041 | 38814 ft | 475 kts | 7° |
| 2026-04-21 17:19 | 23.73249 | 55.44921 | 38825 ft | 476 kts | 7° |
| 2026-04-21 17:19 | 23.79652 | 55.46821 | 38820 ft | 477 kts | 7° |
| 2026-04-21 17:20 | 23.86062 | 55.48727 | 38825 ft | 477 kts | 7° |
| 2026-04-21 17:20 | 23.92470 | 55.50629 | 38826 ft | 477 kts | 7° |
| 2026-04-21 17:21 | 23.98844 | 55.52771 | 38838 ft | 487 kts | 16° |
| 2026-04-21 17:21 | 24.01870 | 55.54514 | 38824 ft | 498 kts | 25° |
| 2026-04-21 17:21 | 24.04682 | 55.56784 | 38824 ft | 508 kts | 33° |
| 2026-04-21 17:22 | 24.09926 | 55.62011 | 38834 ft | 510 kts | 34° |
| 2026-04-21 17:22 | 24.15189 | 55.67213 | 38832 ft | 510 kts | 34° |
| 2026-04-21 17:23 | 24.20448 | 55.72425 | 38838 ft | 510 kts | 34° |
| 2026-04-21 17:23 | 24.25702 | 55.77643 | 38842 ft | 510 kts | 34° |
| 2026-04-21 17:24 | 24.30957 | 55.82870 | 38854 ft | 510 kts | 34° |
| 2026-04-21 17:24 | 24.36206 | 55.88097 | 38857 ft | 510 kts | 35° |
| 2026-04-21 17:25 | 24.41466 | 55.93339 | 38871 ft | 511 kts | 34° |
| 2026-04-21 17:25 | 24.46726 | 55.98587 | 38870 ft | 511 kts | 35° |
| 2026-04-21 17:26 | 24.51985 | 56.03839 | 38874 ft | 511 kts | 35° |
| 2026-04-21 17:26 | 24.57267 | 56.09058 | 38873 ft | 507 kts | 30° |
| 2026-04-21 17:27 | 24.60177 | 56.11139 | 38881 ft | 494 kts | 19° |
| 2026-04-21 17:27 | 24.63311 | 56.12559 | 38872 ft | 482 kts | 8° |
| 2026-04-21 17:27 | 24.69782 | 56.13917 | 38874 ft | 473 kts | 1° |
| 2026-04-21 17:28 | 24.76269 | 56.14951 | 38874 ft | 464 kts | 354° |
| 2026-04-21 17:28 | 24.82504 | 56.14011 | 38856 ft | 446 kts | 335° |
| 2026-04-21 17:29 | 24.88105 | 56.11378 | 38863 ft | 440 kts | 330° |
| 2026-04-21 17:29 | 24.93697 | 56.08633 | 38868 ft | 441 kts | 330° |
| 2026-04-21 17:30 | 24.99309 | 56.05874 | 38859 ft | 442 kts | 330° |
| 2026-04-21 17:30 | 25.04932 | 56.03100 | 38870 ft | 444 kts | 330° |
| 2026-04-21 17:31 | 25.10568 | 56.00310 | 38869 ft | 444 kts | 330° |
| 2026-04-21 17:31 | 25.16210 | 55.97510 | 38890 ft | 445 kts | 330° |
| 2026-04-21 17:32 | 25.21862 | 55.94697 | 38867 ft | 446 kts | 330° |
| 2026-04-21 17:32 | 25.27516 | 55.91877 | 38867 ft | 446 kts | 330° |
| 2026-04-21 17:33 | 25.33166 | 55.89050 | 38869 ft | 446 kts | 330° |
| 2026-04-21 17:33 | 25.38555 | 55.86348 | 38866 ft | 446 kts | 330° |
| 2026-04-21 17:34 | 25.44200 | 55.83511 | 38453 ft | 445 kts | 330° |
| 2026-04-21 17:34 | 25.47030 | 55.82084 | 37333 ft | 451 kts | 330° |
| 2026-04-21 17:34 | 25.49913 | 55.80569 | 35793 ft | 465 kts | 326° |
| 2026-04-21 17:35 | 25.52545 | 55.78489 | 34815 ft | 465 kts | 314° |
| 2026-04-21 17:35 | 25.54690 | 55.75856 | 34134 ft | 457 kts | 303° |
| 2026-04-21 17:35 | 25.56285 | 55.72823 | 33237 ft | 456 kts | 291° |
| 2026-04-21 17:35 | 25.57259 | 55.69514 | 32566 ft | 450 kts | 281° |
| 2026-04-21 17:36 | 25.57615 | 55.66072 | 31470 ft | 453 kts | 270° |
| 2026-04-21 17:36 | 25.57313 | 55.62572 | 30273 ft | 461 kts | 257° |
| 2026-04-21 17:36 | 25.56313 | 55.59208 | 29455 ft | 459 kts | 245° |
| 2026-04-21 17:36 | 25.54726 | 55.56226 | 28738 ft | 454 kts | 234° |
| 2026-04-21 17:37 | 25.52602 | 55.53669 | 28022 ft | 451 kts | 223° |
| 2026-04-21 17:37 | 25.50048 | 55.51676 | 27279 ft | 450 kts | 212° |
| 2026-04-21 17:37 | 25.48124 | 55.50688 | 26783 ft | 451 kts | 204° |
| 2026-04-21 17:37 | 25.44071 | 55.49688 | 25860 ft | 453 kts | 188° |
| 2026-04-21 17:38 | 25.40921 | 55.49772 | 25176 ft | 454 kts | 177° |
| 2026-04-21 17:38 | 25.37805 | 55.50326 | 24486 ft | 453 kts | 173° |
| 2026-04-21 17:38 | 25.34733 | 55.51034 | 23807 ft | 449 kts | 172° |
| 2026-04-21 17:38 | 25.31690 | 55.51757 | 23081 ft | 445 kts | 172° |
| 2026-04-21 17:39 | 25.28677 | 55.52465 | 22309 ft | 441 kts | 170° |
| 2026-04-21 17:39 | 25.25784 | 55.53622 | 21535 ft | 444 kts | 156° |
| 2026-04-21 17:39 | 25.23196 | 55.55483 | 20838 ft | 446 kts | 143° |
| 2026-04-21 17:39 | 25.21059 | 55.57957 | 20148 ft | 446 kts | 129° |
| 2026-04-21 17:40 | 25.19414 | 55.60849 | 19469 ft | 444 kts | 121° |
| 2026-04-21 17:40 | 25.17958 | 55.63839 | 18797 ft | 440 kts | 120° |
| 2026-04-21 17:40 | 25.16500 | 55.66782 | 18161 ft | 435 kts | 121° |
| 2026-04-21 17:40 | 25.14998 | 55.69664 | 17488 ft | 430 kts | 122° |
| 2026-04-21 17:41 | 25.13473 | 55.72476 | 16856 ft | 423 kts | 123° |
| 2026-04-21 17:41 | 25.11954 | 55.75222 | 16322 ft | 415 kts | 124° |
| 2026-04-21 17:41 | 25.10458 | 55.77902 | 15821 ft | 406 kts | 124° |
| 2026-04-21 17:41 | 25.08995 | 55.80516 | 15249 ft | 394 kts | 124° |
| 2026-04-21 17:42 | 25.07381 | 55.82855 | 14765 ft | 374 kts | 141° |
| 2026-04-21 17:42 | 25.05301 | 55.84435 | 14259 ft | 355 kts | 161° |
| 2026-04-21 17:42 | 25.02981 | 55.85078 | 13756 ft | 337 kts | 182° |
| 2026-04-21 17:42 | 25.00730 | 55.84738 | 13199 ft | 321 kts | 204° |
| 2026-04-21 17:43 | 24.98866 | 55.83509 | 12668 ft | 309 kts | 226° |
| 2026-04-21 17:43 | 24.97662 | 55.81615 | 12123 ft | 300 kts | 249° |
| 2026-04-21 17:43 | 24.97297 | 55.79386 | 11591 ft | 296 kts | 273° |
| 2026-04-21 17:43 | 24.97828 | 55.77228 | 11117 ft | 293 kts | 297° |
| 2026-04-21 17:44 | 24.99143 | 55.75548 | 10683 ft | 291 kts | 323° |
| 2026-04-21 17:44 | 25.00906 | 55.74512 | 10273 ft | 283 kts | 325° |
| 2026-04-21 17:44 | 25.02379 | 55.73152 | 9877 ft | 273 kts | 310° |
| 2026-04-21 17:44 | 25.03602 | 55.71575 | 9430 ft | 269 kts | 307° |
| 2026-04-21 17:45 | 25.04792 | 55.69993 | 8982 ft | 267 kts | 308° |
| 2026-04-21 17:45 | 25.06012 | 55.68453 | 8545 ft | 267 kts | 310° |
| 2026-04-21 17:45 | 25.07262 | 55.66954 | 8097 ft | 265 kts | 311° |
| 2026-04-21 17:45 | 25.08528 | 55.65482 | 7674 ft | 263 kts | 312° |
| 2026-04-21 17:46 | 25.09766 | 55.64002 | 7244 ft | 262 kts | 308° |
| 2026-04-21 17:46 | 25.10865 | 55.62382 | 6808 ft | 263 kts | 303° |
| 2026-04-21 17:46 | 25.11847 | 55.60698 | 6390 ft | 259 kts | 301° |
| 2026-04-21 17:46 | 25.12783 | 55.59016 | 5929 ft | 257 kts | 302° |
| 2026-04-21 17:47 | 25.13714 | 55.57338 | 5444 ft | 256 kts | 302° |
| 2026-04-21 17:47 | 25.14644 | 55.55661 | 4947 ft | 257 kts | 303° |
| 2026-04-21 17:47 | 25.15579 | 55.53972 | 4405 ft | 259 kts | 303° |
| 2026-04-21 17:47 | 25.16523 | 55.52271 | 3889 ft | 262 kts | 302° |
| 2026-04-21 17:48 | 25.17155 | 55.51125 | 3490 ft | 265 kts | 303° |
| 2026-04-21 17:48 | 25.18447 | 55.48792 | 2718 ft | 268 kts | 303° |
| 2026-04-21 17:48 | 25.19423 | 55.47032 | 2123 ft | 270 kts | 304° |
| 2026-04-21 17:48 | 25.20393 | 55.45277 | 1646 ft | 266 kts | 304° |
| 2026-04-21 17:49 | 25.21352 | 55.43544 | 1168 ft | 263 kts | 303° |
| 2026-04-21 17:49 | 25.22294 | 55.41845 | 846 ft | 256 kts | 303° |
| 2026-04-21 17:49 | 25.23191 | 55.40219 | 791 ft | 244 kts | 303° |
| 2026-04-21 17:49 | 25.24050 | 55.38663 | 1001 ft | 235 kts | 304° |
| 2026-04-21 17:50 | 25.24901 | 55.37107 | 1263 ft | 238 kts | 304° |
| 2026-04-21 17:50 | 25.25857 | 55.35606 | 1887 ft | 241 kts | 307° |
| 2026-04-21 17:50 | 25.26862 | 55.34131 | 2524 ft | 241 kts | 316° |
| 2026-04-21 17:50 | 25.28162 | 55.33020 | 2763 ft | 236 kts | 336° |
| 2026-04-21 17:51 | 25.29747 | 55.32674 | 2882 ft | 235 kts | 7° |
| 2026-04-21 17:51 | 25.31258 | 55.33274 | 2872 ft | 232 kts | 38° |
| 2026-04-21 17:51 | 25.32255 | 55.34644 | 2855 ft | 232 kts | 69° |
| 2026-04-21 17:51 | 25.32441 | 55.36396 | 2872 ft | 231 kts | 99° |
| 2026-04-21 17:52 | 25.31780 | 55.37998 | 2887 ft | 234 kts | 126° |
| 2026-04-21 17:52 | 25.30754 | 55.39410 | 2866 ft | 236 kts | 127° |
| 2026-04-21 17:52 | 25.29723 | 55.40815 | 2869 ft | 235 kts | 127° |
| 2026-04-21 17:52 | 25.28690 | 55.42217 | 2867 ft | 235 kts | 127° |
| 2026-04-21 17:53 | 25.27663 | 55.43618 | 2868 ft | 234 kts | 127° |
| 2026-04-21 17:53 | 25.26633 | 55.45008 | 2875 ft | 233 kts | 127° |
| 2026-04-21 17:53 | 25.25605 | 55.46380 | 2870 ft | 230 kts | 127° |
| 2026-04-21 17:53 | 25.24601 | 55.47713 | 2870 ft | 220 kts | 127° |
| 2026-04-21 17:54 | 25.23649 | 55.48972 | 2877 ft | 206 kts | 127° |
| 2026-04-21 17:54 | 25.22755 | 55.50148 | 2867 ft | 194 kts | 128° |
| 2026-04-21 17:54 | 25.21702 | 55.50988 | 2638 ft | 192 kts | 161° |
| 2026-04-21 17:54 | 25.20369 | 55.50969 | 2152 ft | 199 kts | 199° |
| 2026-04-21 17:55 | 25.19296 | 55.50025 | 1928 ft | 196 kts | 233° |
| 2026-04-21 17:55 | 25.18780 | 55.48725 | 1866 ft | 183 kts | 270° |
| 2026-04-21 17:55 | 25.19103 | 55.47415 | 1710 ft | 176 kts | 304° |
| 2026-04-21 17:55 | 25.19752 | 55.46304 | 1406 ft | 174 kts | 308° |
| 2026-04-21 17:56 | 25.20388 | 55.45228 | 1194 ft | 159 kts | 306° |
| 2026-04-21 17:56 | 25.20958 | 55.44226 | 997 ft | 149 kts | 305° |
| 2026-04-21 17:56 | 25.21501 | 55.43281 | 816 ft | 145 kts | 305° |
| 2026-04-21 17:56 | 25.22019 | 55.42325 | 639 ft | 141 kts | 303° |
| 2026-04-21 17:57 | 25.22533 | 55.41413 | 467 ft | 141 kts | 302° |
| 2026-04-21 17:57 | 25.23038 | 55.40491 | 296 ft | 140 kts | 302° |
| 2026-04-21 17:57 | 25.23536 | 55.39575 | 101 ft | 139 kts | 302° |
| 2026-04-21 17:57 | 25.24015 | 55.38710 | 34 ft | 113 kts | 304° |
| 2026-04-21 17:58 | 25.24286 | 55.38235 | 37 ft | 35 kts | 302° |
| 2026-04-21 17:58 | 25.24406 | 55.38017 | 35 ft | 32 kts | 301° |
| 2026-04-21 17:58 | 25.24520 | 55.37813 | 34 ft | 31 kts | 302° |
| 2026-04-21 17:58 | 25.24630 | 55.37616 | 33 ft | 29 kts | 302° |
| 2026-04-21 17:59 | 25.24732 | 55.37427 | 33 ft | 29 kts | 295° |
| 2026-04-21 17:59 | 25.24785 | 55.37222 | 34 ft | 28 kts | 274° |
| 2026-04-21 17:59 | 25.24791 | 55.37037 | 29 ft | 18 kts | 271° |
| 2026-04-21 17:59 | 25.24768 | 55.36952 | 28 ft | 17 kts | 215° |
| 2026-04-21 18:00 | 25.24614 | 55.36851 | 25 ft | 22 kts | 210° |
| 2026-04-21 18:00 | 25.24503 | 55.36774 | 31 ft | 20 kts | 212° |
| 2026-04-21 18:00 | 25.24376 | 55.36736 | 29 ft | 19 kts | 140° |
| 2026-04-21 18:00 | 25.24300 | 55.36863 | 30 ft | 21 kts | 121° |
| 2026-04-21 18:01 | 25.24259 | 55.36935 | 28 ft | 17 kts | 122° |
| 2026-04-21 18:01 | 25.24190 | 55.37058 | 30 ft | 20 kts | 122° |
| 2026-04-21 18:01 | 25.24133 | 55.37158 | 29 ft | 11 kts | 121° |
| 2026-04-21 18:01 | 25.24147 | 55.37217 | 28 ft | 9 kts | 31° |
| 2026-04-21 18:02 | 25.24175 | 55.37233 | 29 ft | 5 kts | 30° |
| 2026-04-21 18:02 | 25.24192 | 55.37245 | 29 ft | 5 kts | 31° |
| 2026-04-21 18:02 | 25.24194 | 55.37246 | 29 ft | 0 kts | 31° |
| 2026-04-21 18:03 | 25.24198 | 55.37249 | 29 ft | 0 kts | 31° |
| 2026-04-21 18:03 | 25.24196 | 55.37248 | 29 ft | 0 kts | 31° |